createdAt,value
2023-04-03T00:00:34.640Z,4.28
2023-04-03T00:03:01.704Z,2.40
2023-04-03T00:05:28.443Z,2.20
2023-04-03T00:07:55.154Z,2.35
2023-04-03T00:10:21.847Z,1.88
2023-04-03T00:12:48.592Z,1.73
2023-04-03T00:15:15.496Z,1.45
2023-04-03T00:17:42.903Z,1.58
2023-04-03T00:20:09.819Z,1.80
2023-04-03T00:22:36.544Z,2.10
2023-04-03T00:25:04.230Z,1.85
2023-04-03T00:27:30.955Z,1.80
2023-04-03T00:29:57.697Z,2.00
2023-04-03T00:32:24.416Z,3.47
2023-04-03T00:34:51.286Z,2.45
2023-04-03T00:37:17.989Z,2.13
2023-04-03T00:39:44.648Z,2.42
2023-04-03T00:42:12.027Z,2.65
2023-04-03T00:44:38.639Z,2.08
2023-04-03T00:47:08.156Z,2.00
2023-04-03T00:49:36.413Z,3.08
2023-04-03T00:52:03.778Z,1.92
2023-04-03T00:54:30.950Z,2.38
2023-04-03T00:56:59.160Z,1.73
2023-04-03T00:59:31.287Z,1.58
2023-04-03T01:02:00.294Z,1.40
2023-04-03T01:04:34.573Z,1.55
2023-04-03T01:07:27.547Z,4.03
2023-04-03T01:09:58.766Z,1.48
2023-04-03T01:12:36.813Z,1.83
2023-04-03T01:15:11.201Z,1.42
2023-04-03T01:17:42.006Z,1.33
2023-04-03T01:20:34.187Z,1.20
2023-04-03T01:23:09.898Z,1.75
2023-04-03T01:25:41.705Z,1.67
2023-04-03T01:28:12.098Z,1.42
2023-04-03T01:30:48.607Z,1.70
2023-04-03T01:33:16.375Z,2.63
2023-04-03T01:35:43.076Z,2.53
2023-04-03T01:38:09.757Z,3.38
2023-04-03T01:40:37.229Z,4.30
2023-04-03T01:43:04.284Z,4.30
2023-04-03T01:45:31.148Z,2.40
2023-04-03T01:47:57.955Z,2.30
2023-04-03T01:50:24.680Z,3.30
2023-04-03T01:52:51.353Z,2.13
2023-04-03T01:55:17.985Z,2.72
2023-04-03T01:57:44.624Z,1.95
2023-04-03T02:00:11.672Z,1.40
2023-04-03T02:02:38.492Z,1.50
2023-04-03T02:05:05.836Z,1.90
2023-04-03T02:07:32.601Z,1.80
2023-04-03T02:09:59.273Z,1.80
2023-04-03T02:12:25.971Z,1.65
2023-04-03T02:14:52.774Z,1.60
2023-04-03T02:17:19.413Z,1.80
2023-04-03T02:19:46.084Z,1.83
2023-04-03T02:22:12.733Z,1.48
2023-04-03T02:24:41.338Z,2.45
2023-04-03T02:27:08.092Z,1.77
2023-04-03T02:29:34.720Z,1.58
2023-04-03T02:32:01.486Z,1.70
2023-04-03T02:34:28.176Z,2.30
2023-04-03T02:36:54.826Z,1.92
2023-04-03T02:39:21.960Z,1.98
2023-04-03T02:41:48.571Z,2.08
2023-04-03T02:44:15.579Z,2.65
2023-04-03T02:46:42.293Z,2.10
2023-04-03T02:49:08.946Z,2.35
2023-04-03T02:51:35.678Z,1.73
2023-04-03T02:54:02.634Z,3.20
2023-04-03T02:56:29.338Z,1.95
2023-04-03T02:58:56.046Z,4.28
2023-04-03T03:01:22.940Z,3.45
2023-04-03T03:03:49.694Z,3.47
2023-04-03T03:06:18.073Z,3.60
2023-04-03T03:08:44.972Z,6.15
2023-04-03T03:11:12.111Z,7.57
2023-04-03T03:13:39.879Z,9.38
2023-04-03T03:16:07.104Z,6.70
2023-04-03T03:18:34.853Z,4.82
2023-04-03T03:21:02.989Z,3.97
2023-04-03T03:23:31.328Z,3.85
2023-04-03T03:26:00.336Z,4.13
2023-04-03T03:28:27.143Z,2.42
2023-04-03T03:30:54.188Z,4.93
2023-04-03T03:33:21.231Z,3.15
2023-04-03T03:35:47.888Z,3.05
2023-04-03T03:38:14.626Z,2.47
2023-04-03T03:40:41.428Z,2.90
2023-04-03T03:43:08.211Z,2.55
2023-04-03T03:45:35.214Z,3.05
2023-04-03T03:48:03.055Z,3.13
2023-04-03T03:50:29.786Z,2.47
2023-04-03T03:52:56.613Z,2.67
2023-04-03T03:55:23.353Z,3.20
2023-04-03T03:57:50.003Z,2.65
2023-04-03T04:00:17.210Z,3.30
2023-04-03T04:02:44.605Z,3.72
2023-04-03T04:05:11.339Z,3.30
2023-04-03T04:07:38.043Z,3.10
2023-04-03T04:10:05.136Z,3.70
2023-04-03T04:12:31.828Z,2.67
2023-04-03T04:14:58.496Z,3.13
2023-04-03T04:17:25.324Z,2.72
2023-04-03T04:19:52.014Z,4.05
2023-04-03T04:22:18.714Z,3.30
2023-04-03T04:24:45.343Z,3.42
2023-04-03T04:27:12.070Z,3.50
2023-04-03T04:29:38.775Z,3.05
2023-04-03T04:32:05.712Z,3.72
2023-04-03T04:34:33.130Z,4.47
2023-04-03T04:36:59.870Z,3.53
2023-04-03T04:39:26.573Z,4.22
2023-04-03T04:41:53.357Z,4.30
2023-04-03T04:44:21.174Z,3.40
2023-04-03T04:46:48.032Z,3.80
2023-04-03T04:49:14.764Z,3.97
2023-04-03T04:51:51.581Z,3.80
2023-04-03T04:54:19.272Z,4.45
2023-04-03T04:56:46.082Z,5.70
2023-04-03T04:59:13.071Z,4.68
2023-04-03T05:01:40.261Z,4.72
2023-04-03T05:04:07.125Z,4.43
2023-04-03T05:06:34.071Z,5.40
2023-04-03T05:09:00.783Z,6.15
2023-04-03T05:11:27.855Z,4.53
2023-04-03T05:13:54.502Z,4.45
2023-04-03T05:16:21.280Z,5.15
2023-04-03T05:18:48.067Z,3.92
2023-04-03T05:21:14.751Z,5.88
2023-04-03T05:23:41.679Z,4.60
2023-04-03T05:26:08.395Z,4.07
2023-04-03T05:28:35.334Z,4.10
2023-04-03T05:31:01.991Z,4.28
2023-04-03T05:33:28.745Z,4.75
2023-04-03T05:35:55.830Z,5.80
2023-04-03T05:38:22.771Z,4.45
2023-04-03T05:40:49.585Z,4.50
2023-04-03T05:43:16.702Z,4.43
2023-04-03T05:45:46.285Z,4.70
2023-04-03T05:48:13.914Z,4.72
2023-04-03T05:50:42.686Z,5.05
2023-04-03T05:53:28.134Z,5.15
2023-04-03T05:55:55.097Z,6.45
2023-04-03T05:58:21.777Z,5.25
2023-04-03T06:00:48.589Z,7.57
2023-04-03T06:03:15.594Z,6.10
2023-04-03T06:05:42.717Z,6.85
2023-04-03T06:08:10.169Z,7.80
2023-04-03T06:10:37.517Z,6.65
2023-04-03T06:13:04.264Z,8.13
2023-04-03T06:15:30.957Z,7.70
2023-04-03T06:17:57.978Z,7.63
2023-04-03T06:20:25.592Z,7.60
2023-04-03T06:22:52.575Z,7.75
2023-04-03T06:25:20.005Z,7.18
2023-04-03T06:27:46.908Z,8.10
2023-04-03T06:30:14.172Z,9.73
2023-04-03T06:32:41.528Z,7.38
2023-04-03T06:35:08.653Z,7.72
2023-04-03T06:37:35.419Z,6.85
2023-04-03T06:40:02.757Z,9.10
2023-04-03T06:42:29.635Z,8.25
2023-04-03T06:44:56.749Z,7.13
2023-04-03T06:47:23.361Z,7.18
2023-04-03T06:49:50.035Z,8.70
2023-04-03T06:52:16.700Z,7.20
2023-04-03T06:54:43.397Z,7.18
2023-04-03T06:57:10.225Z,6.72
2023-04-03T06:59:37.666Z,6.75
2023-04-03T07:02:04.867Z,8.82
2023-04-03T07:04:31.818Z,7.43
2023-04-03T07:06:58.534Z,7.95
2023-04-03T07:09:25.717Z,7.07
2023-04-03T07:11:52.399Z,7.03
2023-04-03T07:14:19.328Z,6.72
2023-04-03T07:16:45.952Z,6.18
2023-04-03T07:19:12.881Z,6.10
2023-04-03T07:21:39.854Z,9.45
2023-04-03T07:24:07.515Z,5.60
2023-04-03T07:26:36.366Z,6.32
2023-04-03T07:29:03.469Z,6.25
2023-04-03T07:31:30.215Z,5.82
2023-04-03T07:33:58.253Z,5.30
2023-04-03T07:36:25.321Z,6.63
2023-04-03T07:38:52.072Z,5.80
2023-04-03T07:41:21.248Z,6.20
2023-04-03T07:43:48.147Z,5.22
2023-04-03T07:46:14.928Z,5.78
2023-04-03T07:48:41.893Z,4.15
2023-04-03T07:51:08.598Z,5.47
2023-04-03T07:53:35.374Z,4.93
2023-04-03T07:56:03.769Z,4.20
2023-04-03T07:58:30.935Z,5.03
2023-04-03T08:00:58.388Z,4.88
2023-04-03T08:03:25.582Z,4.40
2023-04-03T08:05:52.551Z,3.92
2023-04-03T08:08:22.714Z,3.42
2023-04-03T08:10:54.809Z,4.05
2023-04-03T08:13:22.406Z,4.15
2023-04-03T08:15:49.239Z,4.43
2023-04-03T08:18:17.050Z,4.20
2023-04-03T08:20:44.330Z,4.38
2023-04-03T08:23:11.430Z,3.45
2023-04-03T08:25:42.346Z,2.67
2023-04-03T08:28:10.662Z,4.28
2023-04-03T08:30:39.800Z,3.25
2023-04-03T08:33:07.270Z,3.38
2023-04-03T08:35:34.845Z,6.05
2023-04-03T08:38:03.010Z,3.00
2023-04-03T08:40:30.744Z,3.60
2023-04-03T08:42:57.388Z,3.28
2023-04-03T08:45:51.526Z,3.70
2023-04-03T08:48:23.481Z,3.15
2023-04-03T08:51:03.171Z,4.63
2023-04-03T08:53:35.067Z,3.72
2023-04-03T08:56:09.354Z,3.83
2023-04-03T08:58:48.994Z,3.35
2023-04-03T09:01:24.551Z,4.80
2023-04-03T09:03:51.974Z,4.35
2023-04-03T09:06:33.870Z,4.15
2023-04-03T09:09:34.141Z,4.03
2023-04-03T09:12:20.929Z,3.50
2023-04-03T09:15:01.440Z,4.38
2023-04-03T09:17:58.810Z,4.03
2023-04-03T09:20:43.574Z,3.35
2023-04-03T09:23:25.860Z,3.60
2023-04-03T09:25:57.667Z,3.75
2023-04-03T09:28:24.435Z,3.55
2023-04-03T09:30:51.057Z,2.92
2023-04-03T09:33:18.659Z,4.00
2023-04-03T09:35:48.641Z,3.88
2023-04-03T09:38:22.211Z,3.83
2023-04-03T09:41:06.462Z,4.78
2023-04-03T09:43:35.508Z,4.18
2023-04-03T09:46:40.527Z,3.08
2023-04-03T09:49:13.073Z,3.35
2023-04-03T09:51:39.860Z,3.78
2023-04-03T09:54:37.010Z,3.83
2023-04-03T09:57:16.294Z,3.10
2023-04-03T10:00:00.688Z,4.00
2023-04-03T10:02:41.331Z,2.65
2023-04-03T10:05:32.864Z,3.88
2023-04-03T10:08:11.222Z,3.30
2023-04-03T10:10:39.232Z,5.38
2023-04-03T10:13:16.430Z,4.03
2023-04-03T10:16:01.360Z,4.32
2023-04-03T10:18:45.791Z,4.22
2023-04-03T10:21:49.688Z,3.90
2023-04-03T10:24:51.899Z,4.25
2023-04-03T10:27:23.317Z,3.65
2023-04-03T10:30:15.340Z,3.73
2023-04-03T10:32:41.964Z,4.10
2023-04-03T10:35:54.161Z,4.00
2023-04-03T10:38:42.478Z,3.63
2023-04-03T10:41:21.778Z,4.70
2023-04-03T10:43:56.435Z,3.40
2023-04-03T10:46:43.115Z,5.15
2023-04-03T10:49:26.531Z,4.35
2023-04-03T10:52:00.590Z,4.88
2023-04-03T10:54:42.579Z,4.57
2023-04-03T10:57:13.803Z,5.97
2023-04-03T10:59:55.123Z,4.53
2023-04-03T11:02:34.555Z,4.28
2023-04-03T11:05:16.621Z,4.30
2023-04-03T11:07:54.297Z,5.90
2023-04-03T11:10:30.132Z,4.03
2023-04-03T11:13:09.306Z,4.50
2023-04-03T11:15:36.587Z,4.18
2023-04-03T11:18:11.890Z,4.10
2023-04-03T11:20:45.490Z,4.70
2023-04-03T11:23:42.315Z,5.00
2023-04-03T11:26:18.862Z,5.97
2023-04-03T11:28:46.992Z,6.03
2023-04-03T11:31:25.245Z,4.70
2023-04-03T11:34:37.317Z,5.63
2023-04-03T11:37:14.278Z,4.53
2023-04-03T11:39:49.094Z,6.43
2023-04-03T11:42:29.078Z,5.32
2023-04-03T11:45:25.666Z,4.60
2023-04-03T11:47:55.088Z,6.85
2023-04-03T11:50:43.379Z,5.90
2023-04-03T11:53:13.056Z,5.38
2023-04-03T11:55:50.021Z,5.50
2023-04-03T11:58:19.491Z,4.95
2023-04-03T12:00:52.178Z,4.70
2023-04-03T12:03:31.034Z,4.20
2023-04-03T12:06:07.149Z,4.82
2023-04-03T12:08:33.781Z,4.70
2023-04-03T12:11:12.341Z,6.43
2023-04-03T12:13:43.428Z,6.00
2023-04-03T12:16:27.386Z,6.15
2023-04-03T12:18:54.153Z,4.57
2023-04-03T12:21:44.185Z,6.38
2023-04-03T12:24:13.533Z,4.90
2023-04-03T12:27:03.943Z,4.70
2023-04-03T12:29:34.334Z,4.55
2023-04-03T12:32:25.474Z,4.82
2023-04-03T12:35:29.655Z,3.67
2023-04-03T12:38:28.256Z,4.70
2023-04-03T12:41:22.647Z,4.93
2023-04-03T12:44:14.924Z,4.35
2023-04-03T12:46:47.317Z,4.78
2023-04-03T12:49:36.221Z,5.45
2023-04-03T12:52:07.209Z,5.53
2023-04-03T12:54:37.434Z,4.43
2023-04-03T12:57:16.337Z,5.43
2023-04-03T12:59:46.462Z,5.03
2023-04-03T13:02:22.378Z,4.85
2023-04-03T13:04:50.155Z,4.13
2023-04-03T13:07:34.303Z,4.30
2023-04-03T13:10:07.893Z,6.85
2023-04-03T13:12:36.498Z,4.32
2023-04-03T13:15:18.934Z,4.88
2023-04-03T13:17:46.432Z,5.28
2023-04-03T13:20:25.182Z,4.32
2023-04-03T13:23:01.050Z,4.40
2023-04-03T13:25:32.538Z,5.18
2023-04-03T13:28:12.537Z,4.82
2023-04-03T13:30:42.707Z,7.20
2023-04-03T13:33:26.823Z,4.80
2023-04-03T13:36:05.549Z,4.63
2023-04-03T13:38:37.326Z,4.75
2023-04-03T13:41:22.900Z,5.07
2023-04-03T13:43:50.752Z,4.78
2023-04-03T13:46:18.565Z,4.90
2023-04-03T13:48:52.138Z,6.50
2023-04-03T13:51:28.221Z,4.32
2023-04-03T13:54:14.301Z,4.55
2023-04-03T13:56:43.113Z,5.15
2023-04-03T13:59:13.010Z,4.43
2023-04-03T14:02:07.886Z,5.75
2023-04-03T14:04:46.503Z,4.13
2023-04-03T14:07:14.734Z,4.10
2023-04-03T14:09:41.716Z,3.42
2023-04-03T14:12:32.586Z,3.95
2023-04-03T14:15:02.031Z,4.35
2023-04-03T14:17:30.059Z,4.38
2023-04-03T14:19:57.454Z,3.85
2023-04-03T14:22:31.156Z,4.57
2023-04-03T14:24:58.834Z,4.97
2023-04-03T14:27:34.572Z,4.40
2023-04-03T14:30:04.059Z,4.50
2023-04-03T14:32:30.987Z,4.85
2023-04-03T14:34:59.266Z,5.05
2023-04-03T14:37:30.309Z,3.63
2023-04-03T14:39:59.159Z,3.92
2023-04-03T14:42:31.870Z,2.95
2023-04-03T14:44:59.567Z,3.63
2023-04-03T14:47:31.798Z,3.58
2023-04-03T14:50:01.204Z,4.28
2023-04-03T14:52:32.225Z,3.50
2023-04-03T14:54:59.421Z,3.00
2023-04-03T14:57:28.499Z,3.47
2023-04-03T14:59:55.444Z,3.95
2023-04-03T15:02:33.180Z,4.13
2023-04-03T15:05:01.799Z,3.47
2023-04-03T15:07:30.687Z,4.07
2023-04-03T15:09:57.661Z,5.22
2023-04-03T15:12:25.805Z,4.13
2023-04-03T15:14:57.644Z,3.88
2023-04-03T15:17:26.907Z,5.85
2023-04-03T15:19:53.609Z,4.47
2023-04-03T15:22:21.182Z,3.83
2023-04-03T15:24:48.144Z,4.22
2023-04-03T15:27:16.477Z,4.25
2023-04-03T15:29:44.184Z,4.25
2023-04-03T15:32:11.535Z,4.22
2023-04-03T15:34:38.967Z,3.47
2023-04-03T15:37:06.454Z,3.85
2023-04-03T15:39:33.299Z,4.07
2023-04-03T15:42:07.176Z,3.45
2023-04-03T15:44:35.589Z,2.95
2023-04-03T15:47:03.115Z,3.60
2023-04-03T15:49:29.826Z,3.35
2023-04-03T15:51:56.597Z,3.67
2023-04-03T15:54:25.024Z,3.72
2023-04-03T15:56:52.608Z,5.07
2023-04-03T15:59:19.960Z,4.05
2023-04-03T16:01:47.050Z,2.72
2023-04-03T16:04:15.597Z,3.50
2023-04-03T16:06:43.650Z,3.85
2023-04-03T16:09:11.125Z,3.78
2023-04-03T16:11:40.346Z,3.40
2023-04-03T16:14:08.535Z,3.60
2023-04-03T16:16:36.631Z,3.80
2023-04-03T16:19:03.975Z,4.35
2023-04-03T16:21:30.832Z,3.38
2023-04-03T16:23:59.424Z,5.05
2023-04-03T16:26:27.182Z,3.47
2023-04-03T16:28:54.849Z,3.28
2023-04-03T16:31:22.802Z,3.70
2023-04-03T16:33:49.683Z,4.00
2023-04-03T16:36:16.707Z,5.40
2023-04-03T16:38:43.413Z,3.88
2023-04-03T16:41:10.041Z,3.50
2023-04-03T16:43:37.910Z,3.72
2023-04-03T16:46:04.765Z,4.35
2023-04-03T16:48:32.329Z,4.20
2023-04-03T16:50:59.332Z,21.70
2023-04-03T16:53:27.084Z,15.52
2023-04-03T16:55:54.154Z,5.03
2023-04-03T16:58:23.375Z,5.38
2023-04-03T17:00:51.428Z,3.50
2023-04-03T17:03:18.335Z,4.38
2023-04-03T17:05:48.763Z,6.20
2023-04-03T17:08:17.324Z,18.75
2023-04-03T17:10:43.997Z,18.77
2023-04-03T17:13:10.843Z,14.20
2023-04-03T17:15:37.859Z,26.30
2023-04-03T17:18:04.892Z,22.63
2023-04-03T17:20:31.650Z,23.17
2023-04-03T17:22:58.662Z,11.60
2023-04-03T17:25:25.300Z,8.57
2023-04-03T17:27:52.009Z,9.73
2023-04-03T17:30:18.650Z,14.73
2023-04-03T17:32:45.444Z,6.55
2023-04-03T17:35:12.151Z,4.13
2023-04-03T17:37:38.937Z,4.03
2023-04-03T17:40:06.763Z,3.85
2023-04-03T17:42:33.630Z,4.10
2023-04-03T17:45:01.216Z,5.13
2023-04-03T17:47:28.048Z,5.32
2023-04-03T17:49:54.858Z,4.10
2023-04-03T17:52:25.496Z,3.72
2023-04-03T17:54:52.238Z,4.03
2023-04-03T17:57:19.131Z,4.57
2023-04-03T17:59:46.281Z,4.32
2023-04-03T18:02:12.923Z,4.90
2023-04-03T18:04:39.640Z,5.03
2023-04-03T18:07:09.710Z,4.40
2023-04-03T18:09:38.019Z,5.05
2023-04-03T18:12:07.303Z,5.32
2023-04-03T18:14:36.125Z,5.07
2023-04-03T18:17:03.042Z,3.75
2023-04-03T18:19:30.145Z,4.82
2023-04-03T18:22:02.255Z,5.07
2023-04-03T18:24:32.049Z,5.20
2023-04-03T18:27:02.150Z,4.93
2023-04-03T18:29:32.636Z,5.13
2023-04-03T18:32:04.286Z,5.07
2023-04-03T18:34:31.816Z,5.50
2023-04-03T18:36:58.470Z,5.18
2023-04-03T18:39:26.982Z,5.78
2023-04-03T18:41:55.111Z,4.85
2023-04-03T18:44:25.074Z,6.28
2023-04-03T18:46:53.950Z,7.03
2023-04-03T18:49:21.136Z,7.47
2023-04-03T18:51:48.088Z,6.57
2023-04-03T18:54:14.689Z,6.53
2023-04-03T18:56:41.424Z,6.20
2023-04-03T18:59:08.174Z,5.63
2023-04-03T19:01:35.241Z,6.10
2023-04-03T19:04:02.445Z,5.28
2023-04-03T19:06:29.580Z,6.13
2023-04-03T19:08:56.433Z,8.43
2023-04-03T19:11:23.217Z,6.22
2023-04-03T19:16:20.075Z,9.05
2023-04-03T19:18:46.785Z,7.60
2023-04-03T19:21:15.013Z,8.48
2023-04-03T19:23:44.686Z,11.82
2023-04-03T19:26:13.264Z,7.00
2023-04-03T19:28:41.704Z,7.35
2023-04-03T19:31:17.349Z,8.88
2023-04-03T19:33:45.331Z,8.02
2023-04-03T19:36:12.399Z,8.63
2023-04-03T19:38:39.928Z,10.60
2023-04-03T19:41:13.232Z,11.23
2023-04-03T19:43:44.564Z,7.68
2023-04-03T19:46:11.731Z,6.38
2023-04-03T19:48:38.548Z,6.88
2023-04-03T19:51:06.209Z,7.60
2023-04-03T19:53:33.088Z,8.40
2023-04-03T19:56:00.995Z,7.15
2023-04-03T19:58:29.983Z,6.32
2023-04-03T20:00:58.221Z,6.55
2023-04-03T20:03:26.154Z,5.88
2023-04-03T20:05:55.208Z,6.72
2023-04-03T20:08:21.951Z,8.82
2023-04-03T20:10:49.100Z,6.82
2023-04-03T20:13:15.922Z,7.25
2023-04-03T20:15:44.542Z,6.95
2023-04-03T20:18:19.561Z,6.93
2023-04-03T20:20:57.659Z,5.55
2023-04-03T20:23:30.859Z,5.70
2023-04-03T20:26:09.172Z,6.03
2023-04-03T20:28:38.679Z,8.10
2023-04-03T20:31:06.648Z,6.15
2023-04-03T20:33:33.996Z,7.07
2023-04-03T20:36:01.676Z,6.80
2023-04-03T20:38:28.624Z,6.07
2023-04-03T20:40:55.549Z,6.82
2023-04-03T20:43:23.380Z,4.85
2023-04-03T20:45:51.026Z,5.75
2023-04-03T20:48:18.511Z,4.93
2023-04-03T20:50:46.491Z,4.75
2023-04-03T20:53:15.031Z,4.65
2023-04-03T20:55:42.644Z,4.00
2023-04-03T20:58:09.506Z,4.93
2023-04-03T21:00:37.892Z,4.82
2023-04-03T21:03:05.801Z,5.40
2023-04-03T21:05:34.723Z,4.10
2023-04-03T21:08:40.226Z,4.43
2023-04-03T21:11:45.255Z,4.60
2023-04-03T21:14:49.551Z,4.57
2023-04-03T21:17:16.520Z,4.32
2023-04-03T21:19:46.561Z,6.53
2023-04-03T21:22:14.037Z,3.80
2023-04-03T21:24:41.105Z,3.80
2023-04-03T21:27:08.344Z,3.55
2023-04-03T21:29:35.291Z,6.18
2023-04-03T21:32:02.191Z,4.10
2023-04-03T21:34:30.277Z,5.63
2023-04-03T21:37:09.511Z,4.30
2023-04-03T21:39:36.689Z,4.40
2023-04-03T21:42:03.462Z,5.03
2023-04-03T21:44:30.411Z,4.25
2023-04-03T21:46:57.116Z,4.68
2023-04-03T21:49:25.538Z,4.38
2023-04-03T21:51:52.609Z,4.30
2023-04-03T21:54:20.157Z,5.55
2023-04-03T21:56:52.329Z,6.43
2023-04-03T21:59:19.332Z,4.65
2023-04-03T22:01:46.165Z,4.10
2023-04-03T22:04:12.917Z,4.13
2023-04-03T22:06:39.660Z,4.53
2023-04-03T22:09:06.631Z,5.32
2023-04-03T22:11:33.531Z,5.20
2023-04-03T22:14:01.021Z,5.25
2023-04-03T22:16:27.854Z,5.20
2023-04-03T22:18:55.067Z,5.85
2023-04-03T22:21:22.480Z,5.05
2023-04-03T22:23:49.483Z,4.93
2023-04-03T22:26:16.556Z,5.70
2023-04-03T22:28:47.626Z,5.63
2023-04-03T22:31:16.317Z,4.68
2023-04-03T22:33:44.985Z,4.93
2023-04-03T22:36:13.141Z,5.90
2023-04-03T22:38:43.527Z,5.38
2023-04-03T22:41:10.723Z,4.47
2023-04-03T22:43:38.211Z,6.18
2023-04-03T22:46:07.620Z,6.10
2023-04-03T22:48:35.146Z,5.20
2023-04-03T22:51:07.438Z,4.85
2023-04-03T22:53:35.672Z,4.20
2023-04-03T22:56:04.968Z,5.40
2023-04-03T22:58:31.796Z,4.45
2023-04-03T23:01:12.613Z,6.40
2023-04-03T23:03:41.386Z,4.03
2023-04-03T23:06:09.528Z,4.45
2023-04-03T23:08:41.003Z,4.65
2023-04-03T23:11:09.681Z,3.97
2023-04-03T23:13:36.907Z,6.72
2023-04-03T23:16:04.727Z,5.97
2023-04-03T23:18:39.693Z,4.65
2023-04-03T23:21:07.976Z,4.90
2023-04-03T23:23:34.849Z,5.10
2023-04-03T23:26:02.710Z,4.78
2023-04-03T23:28:29.991Z,4.07
2023-04-03T23:31:10.311Z,3.63
2023-04-03T23:33:38.475Z,3.33
2023-04-03T23:36:08.834Z,4.07
2023-04-03T23:38:36.407Z,4.70
2023-04-03T23:41:03.173Z,3.38
2023-04-03T23:43:31.258Z,4.40
2023-04-03T23:45:58.521Z,4.82
2023-04-03T23:48:25.466Z,5.20
2023-04-03T23:50:52.091Z,5.50
2023-04-03T23:53:19.257Z,7.10
2023-04-03T23:55:46.001Z,7.18
2023-04-03T23:58:12.693Z,6.82
